Time;durP1;ratioP1;P1;durP2;ratioP2;P2;SDS_P1;SDS_P2;PMS_P1;PMS_P2;Temp;Humidity;BMP_temperature;BMP_pressure;BME280_temperature;BME280_humidity;BME280_pressure;Samples;Min_cycle;Max_cycle;Signal;HPM_P1;HPM_P2
2022/07/29 00:00:46;;;;;;;2.83;2.58;;;25.10;43.80;;;;;;5112949;28;20020;-71
2022/07/29 00:03:12;;;;;;;5.28;3.25;;;25.00;44.10;;;;;;5095578;28;20039;-70
2022/07/29 00:05:40;;;;;;;6.78;2.88;;;25.00;44.10;;;;;;5092547;28;20027;-71
2022/07/29 00:08:06;;;;;;;2.75;2.47;;;25.00;44.50;;;;;;5092434;28;20028;-70
2022/07/29 00:10:33;;;;;;;4.57;3.10;;;25.00;44.80;;;;;;5092358;28;20570;-69
2022/07/29 00:12:59;;;;;;;3.22;2.53;;;25.00;45.10;;;;;;5092385;28;20023;-70
2022/07/29 00:15:25;;;;;;;3.00;2.70;;;24.90;45.10;;;;;;5092247;28;20480;-70
2022/07/29 00:17:51;;;;;;;7.05;2.97;;;24.90;45.40;;;;;;5092284;28;20027;-70
2022/07/29 00:20:16;;;;;;;4.22;2.72;;;24.90;45.40;;;;;;5103388;28;20361;-72
2022/07/29 00:22:43;;;;;;;6.32;3.13;;;24.90;45.70;;;;;;5104433;28;20109;-71
2022/07/29 00:25:09;;;;;;;8.60;3.17;;;24.80;46.30;;;;;;5092113;28;20024;-71
2022/07/29 00:27:35;;;;;;;4.82;3.65;;;24.80;46.40;;;;;;5092053;28;20516;-71
2022/07/29 00:30:03;;;;;;;5.03;3.10;;;24.80;47.00;;;;;;5092129;28;20032;-70
2022/07/29 00:32:29;;;;;;;3.40;2.90;;;24.80;47.30;;;;;;5092617;28;20435;-70
2022/07/29 00:37:39;;;;;;;6.95;3.22;;;24.70;47.00;;;;;;5112297;28;20100;-71
2022/07/29 00:40:06;;;;;;;3.03;2.72;;;24.70;46.70;;;;;;5112372;28;20028;-71
2022/07/29 00:42:48;;;;;;;4.07;2.90;;;24.70;46.70;;;;;;5099366;28;20115;-70
2022/07/29 00:45:16;;;;;;;2.78;2.55;;;24.60;46.80;;;;;;5091978;28;20020;-72
2022/07/29 00:47:41;;;;;;;3.97;3.40;;;24.70;46.90;;;;;;5093827;28;20082;-71
2022/07/29 00:50:10;;;;;;;7.47;3.38;;;24.60;48.00;;;;;;5096050;28;20451;-71
2022/07/29 00:52:38;;;;;;;6.03;3.65;;;24.50;48.60;;;;;;5096099;28;20038;-71
2022/07/29 00:55:06;;;;;;;4.20;3.40;;;24.50;49.20;;;;;;5096078;28;20035;-71
2022/07/29 00:57:32;;;;;;;6.25;3.60;;;24.40;49.10;;;;;;5096043;28;20048;-70
2022/07/29 00:59:58;;;;;;;4.20;3.38;;;24.40;49.00;;;;;;5096012;28;20389;-71
2022/07/29 01:02:24;;;;;;;4.95;3.40;;;24.40;48.90;;;;;;5095964;28;20024;-71
2022/07/29 01:04:51;;;;;;;6.53;3.33;;;24.40;48.70;;;;;;5095764;28;20090;-71
2022/07/29 01:07:17;;;;;;;3.80;3.40;;;24.40;48.50;;;;;;5095814;28;20362;-71
2022/07/29 01:09:45;;;;;;;3.67;3.17;;;24.40;49.00;;;;;;5095716;28;20175;-71
2022/07/29 01:12:12;;;;;;;4.70;3.50;;;24.30;48.80;;;;;;5101186;28;20377;-71
2022/07/29 01:14:40;;;;;;;6.40;3.83;;;24.30;49.20;;;;;;5116010;28;20589;-71
2022/07/29 01:17:47;;;;;;;4.38;3.42;;;24.30;49.60;;;;;;5115882;28;20476;-71
2022/07/29 01:20:49;;;;;;;5.65;3.33;;;24.30;49.20;;;;;;5115294;28;20539;-71
2022/07/29 01:23:34;;;;;;;3.95;3.40;;;24.20;49.90;;;;;;5094145;28;20063;-71
2022/07/29 01:26:08;;;;;;;5.40;3.80;;;24.20;49.50;;;;;;5095541;28;20026;-71
2022/07/29 01:28:46;;;;;;;5.10;3.72;;;24.20;50.30;;;;;;5095361;28;20468;-71
2022/07/29 01:31:18;;;;;;;6.45;3.78;;;24.20;50.90;;;;;;5095230;28;20032;-70
2022/07/29 01:33:53;;;;;;;3.95;3.40;;;24.20;50.40;;;;;;5095360;28;20381;-70
2022/07/29 01:36:29;;;;;;;6.07;3.20;;;24.20;50.40;;;;;;5095234;28;20055;-71
2022/07/29 01:39:08;;;;;;;4.78;3.25;;;24.20;50.20;;;;;;5095254;28;20020;-70
2022/07/29 01:41:38;;;;;;;7.63;3.70;;;24.20;50.60;;;;;;5095481;28;20042;-71
2022/07/29 01:44:14;;;;;;;4.20;3.42;;;24.20;50.60;;;;;;5095715;28;20028;-70
2022/07/29 01:46:48;;;;;;;5.28;3.47;;;24.20;50.40;;;;;;5095154;28;20081;-71
2022/07/29 01:49:18;;;;;;;3.80;3.38;;;24.20;50.50;;;;;;5095078;28;20119;-70
2022/07/29 01:52:14;;;;;;;4.63;3.60;;;24.20;50.60;;;;;;5095089;28;20016;-71
2022/07/29 01:54:58;;;;;;;4.32;3.75;;;24.20;50.60;;;;;;5090590;28;20046;-70
2022/07/29 01:57:30;;;;;;;4.20;3.60;;;24.20;50.40;;;;;;5094894;28;20587;-71
2022/07/29 01:59:58;;;;;;;5.00;3.00;;;24.30;50.50;;;;;;5092516;28;20496;-70
2022/07/29 02:02:25;;;;;;;4.40;3.13;;;24.30;50.40;;;;;;5093431;28;20496;-72
2022/07/29 02:04:54;;;;;;;3.67;3.13;;;24.20;50.00;;;;;;5094800;28;20024;-71
2022/07/29 02:07:23;;;;;;;5.82;3.28;;;24.20;50.10;;;;;;5094664;28;20042;-71
2022/07/29 02:09:51;;;;;;;5.68;3.65;;;24.20;50.20;;;;;;5094550;28;20023;-72
2022/07/29 02:12:20;;;;;;;6.78;3.15;;;24.20;50.40;;;;;;5093889;28;20456;-71
2022/07/29 02:14:48;;;;;;;4.93;3.40;;;24.20;50.30;;;;;;5094584;28;20108;-71
2022/07/29 02:17:20;;;;;;;6.38;3.22;;;24.20;50.10;;;;;;5094397;28;20031;-71
2022/07/29 02:19:48;;;;;;;6.82;3.47;;;24.20;50.10;;;;;;5094426;28;20023;-71
2022/07/29 02:22:15;;;;;;;3.80;2.88;;;24.20;50.20;;;;;;5092952;28;20048;-71
2022/07/29 02:24:42;;;;;;;5.10;3.47;;;24.20;49.80;;;;;;5094370;28;20031;-71
2022/07/29 02:27:09;;;;;;;5.68;3.63;;;24.20;49.70;;;;;;5094284;28;20028;-72
2022/07/29 02:29:36;;;;;;;4.65;3.08;;;24.20;49.60;;;;;;5094290;28;20031;-70
2022/07/29 02:32:04;;;;;;;4.07;3.03;;;24.20;49.50;;;;;;5094161;28;20020;-71
2022/07/29 02:34:30;;;;;;;3.85;3.33;;;24.20;49.40;;;;;;5092935;28;20046;-72
2022/07/29 02:36:56;;;;;;;17.15;5.10;;;24.20;49.40;;;;;;5094022;28;20204;-72
2022/07/29 02:39:24;;;;;;;4.90;3.15;;;24.20;49.40;;;;;;5092809;28;20152;-71
2022/07/29 02:42:01;;;;;;;7.78;2.97;;;24.20;49.40;;;;;;5094274;28;20024;-70
2022/07/29 02:44:27;;;;;;;3.42;2.97;;;24.20;49.20;;;;;;5092705;28;20102;-71
2022/07/29 02:47:15;;;;;;;6.32;3.05;;;24.20;49.00;;;;;;5093903;28;20108;-71
2022/07/29 02:49:52;;;;;;;6.78;3.35;;;24.10;49.10;;;;;;5093892;28;20055;-70
2022/07/29 02:52:26;;;;;;;7.68;2.92;;;24.10;49.00;;;;;;5093950;28;20030;-71
2022/07/29 02:54:54;;;;;;;;;;;24.10;49.10;;;;;;5094191;28;20023;-71
2022/07/29 02:57:32;;;;;;;4.35;3.05;;;24.10;48.70;;;;;;5093506;28;19915;-71
2022/07/29 03:00:05;;;;;;;4.78;3.03;;;24.10;49.10;;;;;;5093419;28;20050;-70
2022/07/29 03:02:35;;;;;;;10.95;3.38;;;24.00;49.10;;;;;;5092153;28;20020;-71
2022/07/29 03:05:04;;;;;;;4.70;3.03;;;24.00;49.30;;;;;;5093374;28;20016;-70
2022/07/29 03:07:30;;;;;;;4.70;3.25;;;23.90;49.20;;;;;;5093328;28;20028;-71
2022/07/29 03:09:57;;;;;;;3.35;2.85;;;23.90;49.40;;;;;;5093138;28;20028;-70
2022/07/29 03:12:24;;;;;;;4.80;3.47;;;23.90;49.70;;;;;;5092213;28;20037;-70
2022/07/29 03:14:51;;;;;;;3.90;3.53;;;23.80;49.60;;;;;;5093272;28;20477;-72
2022/07/29 03:17:17;;;;;;;9.55;3.17;;;23.80;49.70;;;;;;5093052;28;20024;-70
2022/07/29 03:19:43;;;;;;;4.28;2.72;;;23.80;49.80;;;;;;5093066;28;20016;-71
2022/07/29 03:22:10;;;;;;;3.22;2.80;;;23.80;50.00;;;;;;5091514;28;20058;-70
2022/07/29 03:24:37;;;;;;;4.63;3.10;;;23.80;50.20;;;;;;5092973;28;20020;-71
2022/07/29 03:27:04;;;;;;;7.15;3.67;;;23.80;50.10;;;;;;5092941;28;20016;-71
2022/07/29 03:29:30;;;;;;;4.97;3.30;;;23.80;50.20;;;;;;5092839;28;20029;-72
2022/07/29 03:31:56;;;;;;;5.70;3.13;;;23.80;50.20;;;;;;5092833;28;20027;-71
2022/07/29 03:34:22;;;;;;;5.50;3.25;;;23.80;50.40;;;;;;5092636;28;20376;-70
2022/07/29 03:36:48;;;;;;;4.55;3.42;;;23.80;50.70;;;;;;5092707;28;20042;-70
2022/07/29 03:39:19;;;;;;;3.33;2.95;;;23.80;50.30;;;;;;5091461;28;20026;-71
2022/07/29 03:41:47;;;;;;;4.05;3.47;;;23.80;50.60;;;;;;5092952;28;20055;-72
2022/07/29 03:44:15;;;;;;;3.50;2.85;;;23.80;50.40;;;;;;5099679;28;20015;-71
2022/07/29 03:46:45;;;;;;;9.82;3.38;;;23.80;50.30;;;;;;5112940;28;20032;-71
2022/07/29 03:49:14;;;;;;;5.32;3.53;;;23.80;50.50;;;;;;5112885;28;20144;-72
2022/07/29 03:51:40;;;;;;;3.95;3.30;;;23.80;50.50;;;;;;5112732;28;20547;-71
2022/07/29 03:54:06;;;;;;;6.55;3.03;;;23.80;50.30;;;;;;5106890;27;20502;-71
2022/07/29 03:56:34;;;;;;;5.88;3.45;;;23.80;50.20;;;;;;5112179;28;20042;-72
2022/07/29 03:59:02;;;;;;;5.00;3.05;;;23.80;50.40;;;;;;5112719;28;20066;-70
2022/07/29 04:01:30;;;;;;;6.15;2.95;;;23.80;50.40;;;;;;5112542;28;20019;-70
2022/07/29 04:03:56;;;;;;;7.05;2.85;;;23.70;50.50;;;;;;5112647;28;20020;-71
2022/07/29 04:06:22;;;;;;;4.20;3.13;;;23.80;50.40;;;;;;5112588;28;20521;-72
2022/07/29 04:08:48;;;;;;;6.93;3.38;;;23.80;50.50;;;;;;5110484;28;20131;-71
2022/07/29 04:11:13;;;;;;;4.63;3.08;;;23.80;50.60;;;;;;5112499;28;20080;-70
2022/07/29 04:13:40;;;;;;;5.43;3.05;;;23.80;50.70;;;;;;5093766;28;20024;-71
2022/07/29 04:16:05;;;;;;;4.28;3.70;;;23.80;50.90;;;;;;5091976;28;20169;-70
2022/07/29 04:18:31;;;;;;;6.65;3.38;;;23.90;51.00;;;;;;5090661;28;20107;-71
2022/07/29 04:21:00;;;;;;;5.07;3.58;;;23.90;51.20;;;;;;5091767;28;20241;-71
2022/07/29 04:23:26;;;;;;;5.15;3.35;;;23.90;51.10;;;;;;5090215;28;20028;-72
2022/07/29 04:25:52;;;;;;;7.85;3.17;;;23.90;51.20;;;;;;5092050;28;20023;-72
2022/07/29 04:28:18;;;;;;;6.68;3.38;;;23.90;51.10;;;;;;5092143;28;20028;-72
2022/07/29 04:30:44;;;;;;;10.45;3.35;;;24.00;51.00;;;;;;5091992;28;20034;-72
2022/07/29 04:33:10;;;;;;;4.00;2.83;;;24.00;51.50;;;;;;5093077;28;20027;-71
2022/07/29 04:35:38;;;;;;;8.43;3.10;;;24.10;50.80;;;;;;5092982;28;20043;-72
2022/07/29 04:38:06;;;;;;;4.53;2.88;;;24.10;50.70;;;;;;5092719;28;20035;-71
2022/07/29 04:40:32;;;;;;;6.07;3.22;;;24.10;50.30;;;;;;5091471;28;20065;-72
2022/07/29 04:43:00;;;;;;;3.15;2.78;;;24.20;50.40;;;;;;5093230;28;20028;-71
2022/07/29 04:45:26;;;;;;;5.00;3.33;;;24.30;50.10;;;;;;5092779;28;20485;-71
2022/07/29 04:47:52;;;;;;;3.17;2.88;;;24.30;50.00;;;;;;5092895;28;20107;-71
2022/07/29 04:50:17;;;;;;;5.90;2.95;;;24.30;49.70;;;;;;5092932;28;20099;-71
2022/07/29 04:52:43;;;;;;;3.65;2.97;;;24.40;49.90;;;;;;5091876;28;20028;-72
2022/07/29 04:55:09;;;;;;;9.88;3.38;;;24.40;49.80;;;;;;5091685;28;20100;-71
2022/07/29 04:57:35;;;;;;;4.53;3.17;;;24.40;49.60;;;;;;5091582;28;20491;-71
2022/07/29 05:00:01;;;;;;;3.13;2.80;;;24.50;49.60;;;;;;5091530;28;20047;-70
2022/07/29 05:02:27;;;;;;;3.42;2.92;;;24.50;49.50;;;;;;5090391;28;20203;-71
2022/07/29 05:04:53;;;;;;;6.35;3.33;;;24.50;49.50;;;;;;5090375;28;20103;-71
2022/07/29 05:07:18;;;;;;;5.03;3.50;;;24.40;49.50;;;;;;5099866;28;20027;-72
2022/07/29 05:09:44;;;;;;;5.10;3.40;;;24.50;49.70;;;;;;5111903;28;20541;-71
2022/07/29 05:12:10;;;;;;;6.38;3.80;;;24.50;49.70;;;;;;5099919;28;20031;-71
2022/07/29 05:14:36;;;;;;;4.40;3.33;;;24.50;49.80;;;;;;5091594;28;20074;-72
2022/07/29 05:17:02;;;;;;;5.63;3.13;;;24.40;49.80;;;;;;5090017;28;20020;-71
2022/07/29 05:19:27;;;;;;;6.50;3.33;;;24.40;49.80;;;;;;5091370;28;20131;-72
2022/07/29 05:21:53;;;;;;;4.05;3.30;;;24.50;49.70;;;;;;5091250;28;20507;-72
2022/07/29 05:24:19;;;;;;;4.95;3.15;;;24.50;49.70;;;;;;5091484;28;20031;-73
2022/07/29 05:26:45;;;;;;;3.20;2.88;;;24.50;49.70;;;;;;5091548;28;20409;-71
2022/07/29 05:29:11;;;;;;;3.33;2.80;;;24.60;49.70;;;;;;5108789;28;20035;-71
2022/07/29 05:31:36;;;;;;;4.25;2.85;;;24.60;49.60;;;;;;5101470;28;20438;-71
2022/07/29 05:34:02;;;;;;;6.25;3.50;;;24.70;49.80;;;;;;5110437;28;20031;-72
2022/07/29 05:36:28;;;;;;;10.13;3.08;;;24.80;50.00;;;;;;5116054;27;20290;-71
2022/07/29 05:38:54;;;;;;;6.88;3.65;;;24.80;49.90;;;;;;5099176;27;20024;-71
2022/07/29 05:41:20;;;;;;;6.50;3.38;;;24.90;49.80;;;;;;5096058;28;20095;-71
2022/07/29 05:43:46;;;;;;;6.93;3.05;;;25.00;49.60;;;;;;5096290;28;20480;-71
2022/07/29 05:46:12;;;;;;;8.07;3.58;;;25.10;49.40;;;;;;5094463;28;20477;-71
2022/07/29 05:48:38;;;;;;;3.40;2.83;;;25.20;49.20;;;;;;5095737;28;20381;-71
2022/07/29 05:51:04;;;;;;;4.30;3.08;;;25.20;49.20;;;;;;5109792;27;20011;-70
2022/07/29 05:53:30;;;;;;;7.72;3.10;;;25.30;49.10;;;;;;5119817;27;20019;-71
2022/07/29 05:55:56;;;;;;;6.22;4.10;;;25.40;49.00;;;;;;5123685;27;20034;-72
2022/07/29 05:58:22;;;;;;;4.45;3.03;;;25.50;48.40;;;;;;5124643;27;20102;-70
2022/07/29 06:00:49;;;;;;;4.70;3.00;;;25.50;48.00;;;;;;5124678;27;20015;-72
2022/07/29 06:03:15;;;;;;;3.88;2.78;;;25.60;47.70;;;;;;5126368;27;20019;-72
2022/07/29 06:05:41;;;;;;;4.28;2.85;;;25.60;47.90;;;;;;5123240;27;20015;-70
2022/07/29 06:08:07;;;;;;;5.13;3.25;;;25.70;48.30;;;;;;5118624;27;20032;-71
2022/07/29 06:10:35;;;;;;;4.00;3.15;;;25.70;48.30;;;;;;5123508;27;20505;-70
2022/07/29 06:13:00;;;;;;;6.38;3.00;;;25.80;48.40;;;;;;5123968;27;20088;-71
2022/07/29 06:15:26;;;;;;;4.32;2.90;;;25.90;48.10;;;;;;5116150;27;20024;-71
2022/07/29 06:17:52;;;;;;;4.78;3.17;;;26.00;48.10;;;;;;5131963;27;20019;-71
2022/07/29 06:20:19;;;;;;;4.38;2.80;;;26.10;48.10;;;;;;5136322;27;20035;-71
2022/07/29 06:22:44;;;;;;;5.07;2.92;;;26.20;47.60;;;;;;5119136;27;20577;-71
2022/07/29 06:25:11;;;;;;;11.63;2.95;;;26.30;46.90;;;;;;5101385;28;20107;-72
2022/07/29 06:27:37;;;;;;;3.28;2.72;;;26.40;46.50;;;;;;5095181;28;20020;-70
2022/07/29 06:30:06;;;;;;;8.48;3.53;;;26.50;46.10;;;;;;5095337;28;20032;-73
2022/07/29 06:32:32;;;;;;;4.68;2.83;;;26.60;46.30;;;;;;5095168;28;20024;-72
2022/07/29 06:34:58;;;;;;;6.68;2.88;;;26.70;46.20;;;;;;5107641;28;20032;-72
2022/07/29 06:37:24;;;;;;;7.65;3.08;;;26.90;46.00;;;;;;5094959;28;20039;-71
2022/07/29 06:40:59;;;;;;;6.18;3.15;;;27.00;45.70;;;;;;5101404;28;20043;-71
2022/07/29 06:42:35;;;;;;;20.25;4.72;;;27.10;44.90;;;;;;5099548;28;20032;-72
2022/07/29 06:45:01;;;;;;;3.67;2.72;;;27.20;45.00;;;;;;5096561;28;20016;-72
2022/07/29 06:47:27;;;;;;;3.90;3.00;;;27.30;44.70;;;;;;5113610;28;20028;-70
2022/07/29 06:49:53;;;;;;;5.50;3.15;;;27.40;44.30;;;;;;5113960;28;20027;-72
2022/07/29 06:52:20;;;;;;;3.60;2.65;;;27.50;43.50;;;;;;5114924;28;20383;-73
2022/07/29 06:54:47;;;;;;;5.45;2.90;;;27.50;43.10;;;;;;5113816;28;20115;-71
2022/07/29 06:57:14;;;;;;;8.55;3.20;;;27.60;43.10;;;;;;5113701;28;20023;-72
2022/07/29 06:59:39;;;;;;;2.45;2.25;;;27.60;41.90;;;;;;5104993;28;20038;-69
2022/07/29 07:02:05;;;;;;;4.25;2.88;;;27.60;42.50;;;;;;5112770;28;20103;-69
2022/07/29 07:04:31;;;;;;;4.40;2.90;;;27.70;42.30;;;;;;5114858;28;20069;-69
2022/07/29 07:06:58;;;;;;;6.25;3.20;;;27.80;42.10;;;;;;5111414;28;20024;-70
2022/07/29 07:09:24;;;;;;;8.25;3.33;;;27.80;42.00;;;;;;5103741;27;20491;-70
2022/07/29 07:11:50;;;;;;;5.47;2.92;;;27.90;40.80;;;;;;5094620;28;20032;-68
2022/07/29 07:14:16;;;;;;;6.25;3.00;;;27.90;41.70;;;;;;5094284;28;20524;-67
2022/07/29 07:16:41;;;;;;;6.05;3.13;;;27.90;41.30;;;;;;5092932;28;20024;-71
2022/07/29 07:19:07;;;;;;;5.63;3.20;;;27.90;41.40;;;;;;5094217;28;20016;-71
2022/07/29 07:21:33;;;;;;;3.67;2.58;;;27.90;41.10;;;;;;5093894;28;20044;-70
2022/07/29 07:23:59;;;;;;;4.55;2.63;;;27.90;41.50;;;;;;5092836;28;20024;-67
2022/07/29 07:26:26;;;;;;;4.18;2.63;;;27.90;41.50;;;;;;5094137;28;20099;-68
2022/07/29 07:28:53;;;;;;;9.15;3.00;;;28.00;41.10;;;;;;5094084;28;20012;-70
2022/07/29 07:31:18;;;;;;;8.70;3.30;;;27.90;41.00;;;;;;5094033;28;20058;-68
2022/07/29 07:33:44;;;;;;;3.45;2.80;;;27.90;41.00;;;;;;5093889;28;20031;-68
2022/07/29 07:36:10;;;;;;;8.27;2.70;;;27.90;41.20;;;;;;5093706;28;20016;-68
2022/07/29 07:38:36;;;;;;;5.63;3.10;;;27.90;41.30;;;;;;5093935;28;20016;-68
2022/07/29 07:41:02;;;;;;;4.93;2.75;;;27.90;40.00;;;;;;5094168;28;20063;-70
2022/07/29 07:43:28;;;;;;;7.97;3.03;;;27.80;40.10;;;;;;5092384;28;20069;-69
2022/07/29 07:45:53;;;;;;;4.13;2.92;;;27.80;40.80;;;;;;5093740;28;20504;-70
2022/07/29 07:48:19;;;;;;;4.25;2.90;;;27.70;41.40;;;;;;5092400;28;20131;-71
2022/07/29 07:50:45;;;;;;;5.47;2.90;;;27.70;41.50;;;;;;5093615;28;20454;-69
2022/07/29 07:53:11;;;;;;;7.05;2.75;;;27.70;41.70;;;;;;5093630;28;20020;-67
2022/07/29 07:55:41;;;;;;;3.92;2.72;;;27.60;41.80;;;;;;5093527;28;20077;-69
2022/07/29 07:58:08;;;;;;;2.97;2.55;;;27.60;41.90;;;;;;5092668;28;20052;-70
2022/07/29 08:00:34;;;;;;;4.30;2.88;;;27.70;41.90;;;;;;5093479;28;20051;-69
2022/07/29 08:03:00;;;;;;;8.68;3.08;;;27.70;41.80;;;;;;5093402;28;20485;-71
2022/07/29 08:05:26;;;;;;;9.38;4.07;;;27.80;42.10;;;;;;5093339;28;20020;-68
2022/07/29 08:07:51;;;;;;;6.20;2.70;;;27.90;42.00;;;;;;5093333;28;20530;-70
2022/07/29 08:10:51;;;;;;;9.00;3.03;;;27.90;42.10;;;;;;5093310;28;20050;-69
2022/07/29 08:13:08;;;;;;;7.43;3.70;;;27.90;42.20;;;;;;5093563;28;20043;-71
2022/07/29 08:15:35;;;;;;;5.40;3.08;;;27.90;41.90;;;;;;5093269;28;20385;-68
2022/07/29 08:18:01;;;;;;;6.20;3.47;;;27.90;41.70;;;;;;5091858;28;20024;-69
2022/07/29 08:20:27;;;;;;;7.13;3.20;;;28.00;41.80;;;;;;5104376;28;20031;-70
2022/07/29 08:22:53;;;;;;;8.88;3.10;;;27.90;41.60;;;;;;5113574;28;20085;-70
2022/07/29 08:25:20;;;;;;;5.75;3.42;;;28.00;41.60;;;;;;5113536;28;20031;-68
2022/07/29 08:27:49;;;;;;;8.05;3.17;;;28.00;41.30;;;;;;5113490;28;20024;-71
2022/07/29 08:30:15;;;;;;;4.15;2.80;;;28.00;40.90;;;;;;5113291;28;20035;-68
2022/07/29 08:32:41;;;;;;;4.78;2.90;;;28.00;40.60;;;;;;5111804;28;20030;-69
2022/07/29 08:35:08;;;;;;;3.67;2.80;;;28.00;41.00;;;;;;5113166;28;20036;-70
2022/07/29 08:37:34;;;;;;;3.60;2.75;;;28.00;41.10;;;;;;5113363;28;20048;-71
2022/07/29 08:40:00;;;;;;;6.15;2.85;;;28.00;40.50;;;;;;5113396;28;20059;-68
2022/07/29 08:42:25;;;;;;;6.55;3.40;;;28.10;40.50;;;;;;5113313;28;20040;-68
2022/07/29 08:44:53;;;;;;;4.53;2.88;;;28.10;40.50;;;;;;5113309;28;20115;-69
2022/07/29 08:47:19;;;;;;;3.90;2.75;;;28.10;40.50;;;;;;5113241;28;20026;-69
2022/07/29 08:49:46;;;;;;;3.92;2.40;;;28.10;40.80;;;;;;5113301;28;20107;-69
2022/07/29 08:52:13;;;;;;;4.03;2.90;;;28.10;40.50;;;;;;5111972;28;20020;-69
2022/07/29 08:54:43;;;;;;;4.32;3.13;;;28.00;40.40;;;;;;5113163;28;20020;-68
2022/07/29 08:57:10;;;;;;;3.65;2.67;;;28.00;40.60;;;;;;5113066;28;20469;-71
2022/07/29 08:59:39;;;;;;;4.38;2.70;;;28.00;40.30;;;;;;5111827;28;20384;-71
2022/07/29 09:02:12;;;;;;;5.03;3.22;;;28.00;41.30;;;;;;5109172;28;20035;-69
2022/07/29 09:04:38;;;;;;;5.82;3.40;;;28.10;41.20;;;;;;5092671;28;20028;-69
2022/07/29 09:07:05;;;;;;;5.20;3.28;;;28.00;40.40;;;;;;5092738;28;20024;-69
2022/07/29 09:09:33;;;;;;;6.50;3.40;;;28.10;40.20;;;;;;5095711;28;20461;-70
2022/07/29 09:11:59;;;;;;;5.25;3.55;;;28.10;40.60;;;;;;5096676;28;20528;-69
2022/07/29 09:14:25;;;;;;;4.40;3.05;;;28.10;40.70;;;;;;5096513;28;20384;-71
2022/07/29 09:16:56;;;;;;;8.77;3.17;;;28.20;41.00;;;;;;5096607;28;20037;-70
2022/07/29 09:19:25;;;;;;;5.35;3.42;;;28.30;41.00;;;;;;5096981;28;20052;-71
2022/07/29 09:22:00;;;;;;;5.72;3.63;;;28.30;40.50;;;;;;5095170;28;20052;-68
2022/07/29 09:24:47;;;;;;;6.40;3.13;;;28.40;40.70;;;;;;5095222;28;20485;-70
2022/07/29 09:27:22;;;;;;;6.50;3.30;;;28.60;40.70;;;;;;5096408;28;20418;-71
2022/07/29 09:29:59;;;;;;;4.68;3.20;;;28.70;40.50;;;;;;5096349;28;20031;-71
2022/07/29 09:32:26;;;;;;;5.53;3.25;;;28.90;40.40;;;;;;5096477;28;20024;-71
2022/07/29 09:35:18;;;;;;;7.47;3.33;;;29.00;40.00;;;;;;5096342;28;20053;-71
2022/07/29 09:37:45;;;;;;;3.65;2.83;;;29.20;40.00;;;;;;5096270;28;20088;-70
2022/07/29 09:40:13;;;;;;;5.53;3.15;;;29.40;39.90;;;;;;5096278;28;20020;-72
2022/07/29 09:42:39;;;;;;;10.68;3.67;;;29.60;39.60;;;;;;5096160;28;20016;-70
2022/07/29 09:45:05;;;;;;;5.75;3.38;;;29.80;39.30;;;;;;5096013;28;20031;-70
2022/07/29 09:47:48;;;;;;;5.30;3.63;;;29.90;38.70;;;;;;5096032;28;20031;-72
2022/07/29 09:50:15;;;;;;;7.07;3.55;;;30.10;38.30;;;;;;5096051;28;20172;-72
2022/07/29 09:52:50;;;;;;;10.13;4.25;;;30.30;37.40;;;;;;5094734;28;20057;-72
2022/07/29 09:55:17;;;;;;;5.47;3.35;;;30.40;37.60;;;;;;5095910;28;20031;-71
2022/07/29 09:57:44;;;;;;;7.40;3.58;;;30.60;37.70;;;;;;5095786;28;20028;-72
2022/07/29 10:00:15;;;;;;;5.35;3.10;;;30.80;37.20;;;;;;5095839;28;20044;-72
2022/07/29 10:02:43;;;;;;;7.95;3.95;;;30.90;36.90;;;;;;5096096;28;20020;-71
2022/07/29 10:05:24;;;;;;;6.97;4.25;;;31.00;36.50;;;;;;5095501;28;20020;-71
2022/07/29 10:07:57;;;;;;;10.40;4.70;;;31.20;36.60;;;;;;5095544;28;20038;-71
2022/07/29 10:10:26;;;;;;;10.18;4.10;;;31.30;36.00;;;;;;5094299;28;20118;-72
2022/07/29 10:12:57;;;;;;;5.68;3.75;;;31.40;35.90;;;;;;5095589;28;20024;-70
2022/07/29 10:15:25;;;;;;;5.80;3.78;;;31.40;35.80;;;;;;5095540;28;20024;-69
2022/07/29 10:17:53;;;;;;;9.68;3.63;;;31.60;35.40;;;;;;5095408;28;20024;-72
2022/07/29 10:20:21;;;;;;;5.28;4.05;;;31.60;35.20;;;;;;5094578;28;20016;-70
2022/07/29 10:22:51;;;;;;;8.98;4.40;;;31.80;35.20;;;;;;5095359;28;20047;-69
2022/07/29 10:25:18;;;;;;;12.25;4.15;;;31.90;34.80;;;;;;5095326;28;20518;-70
2022/07/29 10:27:46;;;;;;;10.52;3.17;;;32.00;34.60;;;;;;5095353;28;20200;-73
2022/07/29 10:30:12;;;;;;;6.85;4.15;;;32.10;35.00;;;;;;5095306;28;20107;-70
2022/07/29 10:33:15;;;;;;;4.53;3.58;;;32.20;33.90;;;;;;5095479;28;20077;-70
2022/07/29 10:36:18;;;;;;;9.60;4.03;;;32.20;33.90;;;;;;5110778;28;20035;-71
2022/07/29 10:39:01;;;;;;;11.48;4.53;;;32.30;34.10;;;;;;5115414;28;20059;-72
2022/07/29 10:41:51;;;;;;;6.93;3.97;;;32.40;33.30;;;;;;5115449;28;20140;-69
2022/07/29 10:44:22;;;;;;;8.20;4.07;;;32.40;33.30;;;;;;5115367;28;20068;-70
2022/07/29 10:46:48;;;;;;;6.78;3.83;;;32.30;32.90;;;;;;5115270;28;20091;-71
2022/07/29 10:49:18;;;;;;;9.80;3.90;;;32.20;32.80;;;;;;5115301;28;20606;-71
2022/07/29 10:52:06;;;;;;;5.13;3.42;;;32.20;33.40;;;;;;5115151;28;20031;-69
2022/07/29 10:54:45;;;;;;;4.47;3.72;;;32.00;33.70;;;;;;5115151;28;20016;-71
2022/07/29 10:57:26;;;;;;;5.03;3.20;;;31.90;33.30;;;;;;5114985;28;20024;-68
2022/07/29 11:00:14;;;;;;;7.95;3.60;;;31.90;33.80;;;;;;5114971;27;20020;-70
2022/07/29 11:02:40;;;;;;;5.18;3.50;;;31.70;33.70;;;;;;5108525;28;20008;-72
2022/07/29 11:05:19;;;;;;;10.98;3.42;;;31.60;33.30;;;;;;5094445;28;20028;-71
2022/07/29 11:08:12;;;;;;;4.00;3.33;;;31.50;33.80;;;;;;5094458;28;20032;-69
2022/07/29 11:10:39;;;;;;;6.57;3.70;;;31.40;34.10;;;;;;5094437;28;20020;-70
2022/07/29 11:13:05;;;;;;;5.05;3.35;;;31.40;34.10;;;;;;5094398;28;20389;-70
2022/07/29 11:15:54;;;;;;;5.30;3.78;;;31.30;34.50;;;;;;5094213;28;20028;-69
2022/07/29 11:18:20;;;;;;;6.47;3.58;;;31.20;34.70;;;;;;5094182;28;20032;-71
2022/07/29 11:20:49;;;;;;;5.38;3.90;;;31.20;35.00;;;;;;5094071;28;20143;-70
2022/07/29 11:23:31;;;;;;;8.95;4.05;;;31.20;35.10;;;;;;5094189;28;20024;-71
2022/07/29 11:26:20;;;;;;;8.98;3.40;;;31.20;35.30;;;;;;5094122;28;20024;-68
2022/07/29 11:28:54;;;;;;;7.18;4.13;;;31.20;35.40;;;;;;5094160;28;20107;-70
2022/07/29 11:31:42;;;;;;;6.10;3.08;;;31.30;35.00;;;;;;5094070;28;20104;-71
2022/07/29 11:34:23;;;;;;;7.47;3.58;;;31.20;35.40;;;;;;5093724;28;20022;-71
2022/07/29 11:37:07;;;;;;;4.68;3.45;;;31.30;35.50;;;;;;5093740;28;20047;-71
2022/07/29 11:39:39;;;;;;;6.47;3.40;;;31.40;35.50;;;;;;5093654;28;20043;-69
2022/07/29 11:42:20;;;;;;;6.37;3.40;;;31.40;35.10;;;;;;5093536;28;20024;-69
2022/07/29 11:45:16;;;;;;;4.38;3.10;;;31.50;35.40;;;;;;5093622;28;20050;-69
2022/07/29 11:47:53;;;;;;;7.10;3.72;;;31.50;35.20;;;;;;5093618;28;20107;-69
2022/07/29 11:50:36;;;;;;;5.97;3.42;;;31.60;34.60;;;;;;5093586;28;20404;-71
2022/07/29 11:53:11;;;;;;;3.80;3.03;;;31.60;34.70;;;;;;5093577;28;20034;-71
2022/07/29 11:55:38;;;;;;;3.85;2.60;;;31.70;34.80;;;;;;5093609;28;20020;-71
2022/07/29 11:58:05;;;;;;;5.88;3.22;;;31.70;34.20;;;;;;5093482;28;20032;-71
2022/07/29 12:00:34;;;;;;;4.63;3.20;;;31.80;34.20;;;;;;5092303;28;20020;-71
2022/07/29 12:03:08;;;;;;;6.97;2.92;;;31.80;34.20;;;;;;5092368;28;20034;-69
2022/07/29 12:05:35;;;;;;;;;;;31.90;34.40;;;;;;5093557;28;20016;-71
2022/07/29 12:08:12;;;;;;;4.35;2.92;;;32.00;34.90;;;;;;5093234;28;20357;-72
2022/07/29 12:10:39;;;;;;;6.40;3.22;;;32.00;33.90;;;;;;5093414;28;20028;-69
2022/07/29 12:13:05;;;;;;;5.03;3.15;;;32.10;33.70;;;;;;5093260;28;20035;-69
2022/07/29 12:15:31;;;;;;;4.35;2.63;;;32.20;33.20;;;;;;5093265;28;20477;-69
2022/07/29 12:17:57;;;;;;;3.40;2.50;;;32.20;33.20;;;;;;5093069;28;20027;-72
2022/07/29 12:20:28;;;;;;;2.80;2.30;;;32.20;33.50;;;;;;5093007;28;20495;-69
2022/07/29 12:22:55;;;;;;;6.57;2.75;;;32.30;33.70;;;;;;5093275;28;20519;-71
2022/07/29 12:25:23;;;;;;;6.35;3.13;;;32.40;33.40;;;;;;5092209;28;20034;-71
2022/07/29 12:28:02;;;;;;;6.35;3.35;;;32.40;33.00;;;;;;5093083;28;20024;-71
2022/07/29 12:30:48;;;;;;;3.97;2.85;;;32.50;32.90;;;;;;5091788;28;20028;-70
2022/07/29 12:33:26;;;;;;;5.68;2.60;;;32.50;32.60;;;;;;5093432;28;20153;-68
2022/07/29 12:36:00;;;;;;;3.40;2.50;;;32.40;33.00;;;;;;5093096;28;20126;-70
2022/07/29 12:38:27;;;;;;;4.90;2.70;;;32.40;32.20;;;;;;5092888;28;20494;-69
2022/07/29 12:40:54;;;;;;;2.72;2.20;;;32.50;32.20;;;;;;5093072;28;20020;-69
2022/07/29 12:43:21;;;;;;;4.80;2.35;;;32.40;32.40;;;;;;5094511;28;20103;-72
2022/07/29 12:45:53;;;;;;;3.97;2.10;;;32.40;31.60;;;;;;5099680;28;20024;-70
2022/07/29 12:48:39;;;;;;;2.60;1.88;;;32.40;31.50;;;;;;5099723;28;20035;-67
2022/07/29 12:51:07;;;;;;;1.98;1.67;;;32.40;31.60;;;;;;5099753;28;20028;-68
2022/07/29 12:53:33;;;;;;;3.70;2.05;;;32.40;31.10;;;;;;5099669;28;20396;-69
2022/07/29 12:56:03;;;;;;;2.95;1.77;;;32.30;31.00;;;;;;5099671;28;20469;-70
2022/07/29 12:58:32;;;;;;;3.25;1.90;;;32.30;31.10;;;;;;5099521;28;20032;-71
2022/07/29 13:01:00;;;;;;;5.43;2.38;;;32.30;30.50;;;;;;5099542;28;20020;-70
2022/07/29 13:03:25;;;;;;;4.38;1.63;;;32.30;30.30;;;;;;5104087;28;20068;-71